sensor_id;sensor_type;location;lat;lon;timestamp;pressure;altitude;pressure_sealevel;temperature;humidity
21086;BME280;72320;50.082;20.000;2023-10-08T00:00:14;98750.53;;;15.71;100.00
21086;BME280;72320;50.082;20.000;2023-10-08T00:01:52;98751.16;;;15.65;100.00
21086;BME280;72320;50.082;20.000;2023-10-08T00:03:31;98754.00;;;15.54;100.00
21086;BME280;72320;50.082;20.000;2023-10-08T00:05:04;98739.38;;;15.49;100.00
21086;BME280;72320;50.082;20.000;2023-10-08T00:06:39;98744.69;;;15.58;100.00
21086;BME280;72320;50.082;20.000;2023-10-08T00:08:12;98744.44;;;15.52;100.00
21086;BME280;72320;50.082;20.000;2023-10-08T00:09:45;98751.53;;;15.43;100.00
21086;BME280;72320;50.082;20.000;2023-10-08T00:11:19;98758.94;;;15.49;100.00
21086;BME280;72320;50.082;20.000;2023-10-08T00:12:52;98754.53;;;15.30;100.00
21086;BME280;72320;50.082;20.000;2023-10-08T00:14:25;98754.47;;;15.40;100.00
21086;BME280;72320;50.082;20.000;2023-10-08T00:15:58;98753.91;;;15.46;100.00
21086;BME280;72320;50.082;20.000;2023-10-08T00:17:31;98761.25;;;15.34;100.00
21086;BME280;72320;50.082;20.000;2023-10-08T00:19:04;98753.13;;;15.26;100.00
21086;BME280;72320;50.082;20.000;2023-10-08T00:20:38;98757.84;;;15.14;100.00
21086;BME280;72320;50.082;20.000;2023-10-08T00:22:11;98764.50;;;15.01;100.00
21086;BME280;72320;50.082;20.000;2023-10-08T00:23:45;98758.19;;;14.92;100.00
21086;BME280;72320;50.082;20.000;2023-10-08T00:25:18;98763.84;;;14.70;100.00
21086;BME280;72320;50.082;20.000;2023-10-08T00:26:51;98768.22;;;14.61;100.00
21086;BME280;72320;50.082;20.000;2023-10-08T00:28:24;98765.81;;;14.68;100.00
21086;BME280;72320;50.082;20.000;2023-10-08T00:29:57;98768.06;;;14.62;100.00
21086;BME280;72320;50.082;20.000;2023-10-08T00:31:30;98773.03;;;14.57;100.00
21086;BME280;72320;50.082;20.000;2023-10-08T00:33:04;98764.03;;;14.58;100.00
21086;BME280;72320;50.082;20.000;2023-10-08T00:34:42;98760.22;;;14.61;100.00
21086;BME280;72320;50.082;20.000;2023-10-08T00:36:15;98761.63;;;14.55;100.00
21086;BME280;72320;50.082;20.000;2023-10-08T00:37:48;98752.91;;;14.44;100.00
21086;BME280;72320;50.082;20.000;2023-10-08T00:39:21;98760.22;;;14.42;100.00
21086;BME280;72320;50.082;20.000;2023-10-08T00:40:54;98753.31;;;14.39;100.00
21086;BME280;72320;50.082;20.000;2023-10-08T00:42:27;98750.09;;;14.35;100.00
21086;BME280;72320;50.082;20.000;2023-10-08T00:44:00;98756.41;;;14.44;100.00
21086;BME280;72320;50.082;20.000;2023-10-08T00:45:33;98754.59;;;14.45;100.00
21086;BME280;72320;50.082;20.000;2023-10-08T00:47:06;98747.41;;;14.45;100.00
21086;BME280;72320;50.082;20.000;2023-10-08T00:48:39;98749.25;;;14.45;100.00
21086;BME280;72320;50.082;20.000;2023-10-08T00:50:13;98749.66;;;14.40;100.00
21086;BME280;72320;50.082;20.000;2023-10-08T00:51:46;98749.81;;;14.29;100.00
21086;BME280;72320;50.082;20.000;2023-10-08T00:53:19;98748.97;;;14.19;100.00
21086;BME280;72320;50.082;20.000;2023-10-08T00:54:53;98754.03;;;14.31;100.00
21086;BME280;72320;50.082;20.000;2023-10-08T00:56:29;98749.81;;;14.29;100.00
21086;BME280;72320;50.082;20.000;2023-10-08T00:58:03;98744.63;;;14.27;100.00
21086;BME280;72320;50.082;20.000;2023-10-08T00:59:36;98753.03;;;14.32;100.00
21086;BME280;72320;50.082;20.000;2023-10-08T01:01:09;98753.63;;;14.36;100.00
21086;BME280;72320;50.082;20.000;2023-10-08T01:02:42;98756.97;;;14.38;100.00
21086;BME280;72320;50.082;20.000;2023-10-08T01:04:21;98755.44;;;14.26;100.00
21086;BME280;72320;50.082;20.000;2023-10-08T01:05:56;98759.50;;;14.11;100.00
21086;BME280;72320;50.082;20.000;2023-10-08T01:07:29;98765.53;;;13.93;100.00
21086;BME280;72320;50.082;20.000;2023-10-08T01:09:03;98761.44;;;13.70;100.00
21086;BME280;72320;50.082;20.000;2023-10-08T01:10:36;98760.97;;;13.55;100.00
21086;BME280;72320;50.082;20.000;2023-10-08T01:12:21;98771.25;;;13.29;100.00
21086;BME280;72320;50.082;20.000;2023-10-08T01:13:54;98767.06;;;13.06;100.00
21086;BME280;72320;50.082;20.000;2023-10-08T01:15:27;98775.38;;;13.12;100.00
21086;BME280;72320;50.082;20.000;2023-10-08T01:17:00;98781.19;;;12.96;100.00
21086;BME280;72320;50.082;20.000;2023-10-08T01:18:33;98778.19;;;12.90;100.00
21086;BME280;72320;50.082;20.000;2023-10-08T01:20:07;98785.34;;;12.89;100.00
21086;BME280;72320;50.082;20.000;2023-10-08T01:21:41;98781.75;;;12.79;100.00
21086;BME280;72320;50.082;20.000;2023-10-08T01:23:14;98776.81;;;12.75;100.00
21086;BME280;72320;50.082;20.000;2023-10-08T01:24:48;98780.91;;;12.58;100.00
21086;BME280;72320;50.082;20.000;2023-10-08T01:26:22;98790.91;;;12.45;100.00
21086;BME280;72320;50.082;20.000;2023-10-08T01:27:56;98790.38;;;12.30;100.00
21086;BME280;72320;50.082;20.000;2023-10-08T01:29:29;98793.94;;;12.19;100.00
21086;BME280;72320;50.082;20.000;2023-10-08T01:31:02;98791.44;;;12.06;100.00
21086;BME280;72320;50.082;20.000;2023-10-08T01:32:35;98787.09;;;11.94;100.00
21086;BME280;72320;50.082;20.000;2023-10-08T01:34:08;98789.25;;;12.00;100.00
21086;BME280;72320;50.082;20.000;2023-10-08T01:35:42;98794.44;;;12.02;100.00
21086;BME280;72320;50.082;20.000;2023-10-08T01:37:17;98797.38;;;11.99;100.00
21086;BME280;72320;50.082;20.000;2023-10-08T01:38:51;98787.38;;;11.91;100.00
21086;BME280;72320;50.082;20.000;2023-10-08T01:40:25;98790.38;;;11.98;100.00
21086;BME280;72320;50.082;20.000;2023-10-08T01:41:58;98791.09;;;12.00;100.00
21086;BME280;72320;50.082;20.000;2023-10-08T01:43:31;98803.63;;;12.09;100.00
21086;BME280;72320;50.082;20.000;2023-10-08T01:45:05;98797.59;;;12.07;100.00
21086;BME280;72320;50.082;20.000;2023-10-08T01:46:38;98801.88;;;11.87;100.00
21086;BME280;72320;50.082;20.000;2023-10-08T01:48:11;98806.34;;;11.86;100.00
21086;BME280;72320;50.082;20.000;2023-10-08T01:49:45;98798.50;;;11.85;100.00
21086;BME280;72320;50.082;20.000;2023-10-08T01:51:19;98806.84;;;11.80;100.00
21086;BME280;72320;50.082;20.000;2023-10-08T01:52:52;98804.91;;;11.82;100.00
21086;BME280;72320;50.082;20.000;2023-10-08T01:54:25;98803.69;;;11.75;100.00
21086;BME280;72320;50.082;20.000;2023-10-08T01:55:58;98820.00;;;11.71;100.00
21086;BME280;72320;50.082;20.000;2023-10-08T01:57:31;98824.84;;;11.66;100.00
21086;BME280;72320;50.082;20.000;2023-10-08T01:59:04;98822.56;;;11.61;100.00
21086;BME280;72320;50.082;20.000;2023-10-08T02:04:20;98816.53;;;11.59;100.00
21086;BME280;72320;50.082;20.000;2023-10-08T02:05:54;98821.00;;;11.47;100.00
21086;BME280;72320;50.082;20.000;2023-10-08T02:07:27;98822.09;;;11.33;100.00
21086;BME280;72320;50.082;20.000;2023-10-08T02:09:01;98833.69;;;11.32;100.00
21086;BME280;72320;50.082;20.000;2023-10-08T02:10:36;98832.94;;;11.42;100.00
21086;BME280;72320;50.082;20.000;2023-10-08T02:12:09;98826.91;;;11.40;100.00
21086;BME280;72320;50.082;20.000;2023-10-08T02:13:43;98820.50;;;11.20;100.00
21086;BME280;72320;50.082;20.000;2023-10-08T02:15:16;98821.84;;;11.25;100.00
21086;BME280;72320;50.082;20.000;2023-10-08T02:16:50;98826.31;;;11.25;100.00
21086;BME280;72320;50.082;20.000;2023-10-08T02:18:23;98819.66;;;11.08;100.00
21086;BME280;72320;50.082;20.000;2023-10-08T02:19:56;98817.56;;;11.00;100.00
21086;BME280;72320;50.082;20.000;2023-10-08T02:21:29;98816.84;;;10.98;100.00
21086;BME280;72320;50.082;20.000;2023-10-08T02:23:02;98823.63;;;11.02;100.00
21086;BME280;72320;50.082;20.000;2023-10-08T02:24:36;98823.25;;;11.07;100.00
21086;BME280;72320;50.082;20.000;2023-10-08T02:26:10;98828.09;;;11.13;100.00
21086;BME280;72320;50.082;20.000;2023-10-08T02:27:43;98841.25;;;11.03;100.00
21086;BME280;72320;50.082;20.000;2023-10-08T02:29:15;98842.81;;;10.95;100.00
21086;BME280;72320;50.082;20.000;2023-10-08T02:30:49;98843.16;;;10.90;100.00
21086;BME280;72320;50.082;20.000;2023-10-08T02:32:22;98844.25;;;10.88;100.00
21086;BME280;72320;50.082;20.000;2023-10-08T02:33:55;98850.78;;;10.95;100.00
21086;BME280;72320;50.082;20.000;2023-10-08T02:35:28;98838.47;;;10.94;100.00
21086;BME280;72320;50.082;20.000;2023-10-08T02:37:01;98833.63;;;10.99;100.00
21086;BME280;72320;50.082;20.000;2023-10-08T02:38:34;98847.63;;;10.90;100.00
21086;BME280;72320;50.082;20.000;2023-10-08T02:40:09;98839.63;;;10.78;100.00
21086;BME280;72320;50.082;20.000;2023-10-08T02:41:44;98848.88;;;10.62;100.00
21086;BME280;72320;50.082;20.000;2023-10-08T02:43:18;98865.50;;;10.53;100.00
21086;BME280;72320;50.082;20.000;2023-10-08T02:44:51;98873.31;;;10.43;100.00
21086;BME280;72320;50.082;20.000;2023-10-08T02:46:24;98870.47;;;10.33;100.00
21086;BME280;72320;50.082;20.000;2023-10-08T02:47:57;98873.00;;;10.35;100.00
21086;BME280;72320;50.082;20.000;2023-10-08T02:49:30;98864.00;;;10.48;100.00
21086;BME280;72320;50.082;20.000;2023-10-08T02:51:03;98849.06;;;10.47;100.00
21086;BME280;72320;50.082;20.000;2023-10-08T02:52:36;98855.84;;;10.52;100.00
21086;BME280;72320;50.082;20.000;2023-10-08T02:54:10;98856.13;;;10.60;100.00
21086;BME280;72320;50.082;20.000;2023-10-08T02:55:43;98856.91;;;10.49;100.00
21086;BME280;72320;50.082;20.000;2023-10-08T02:57:16;98859.78;;;10.46;100.00
21086;BME280;72320;50.082;20.000;2023-10-08T02:58:49;98867.03;;;10.44;100.00
21086;BME280;72320;50.082;20.000;2023-10-08T03:00:22;98866.78;;;10.47;100.00
21086;BME280;72320;50.082;20.000;2023-10-08T03:01:56;98870.53;;;10.44;100.00
21086;BME280;72320;50.082;20.000;2023-10-08T03:03:29;98866.50;;;10.39;100.00
21086;BME280;72320;50.082;20.000;2023-10-08T03:05:02;98868.94;;;10.42;100.00
21086;BME280;72320;50.082;20.000;2023-10-08T03:06:35;98866.19;;;10.43;100.00
21086;BME280;72320;50.082;20.000;2023-10-08T03:08:08;98853.41;;;10.48;100.00
21086;BME280;72320;50.082;20.000;2023-10-08T03:09:41;98861.25;;;10.50;100.00
21086;BME280;72320;50.082;20.000;2023-10-08T03:11:14;98859.88;;;10.20;100.00
21086;BME280;72320;50.082;20.000;2023-10-08T03:12:47;98849.50;;;10.17;100.00
21086;BME280;72320;50.082;20.000;2023-10-08T03:14:20;98862.63;;;10.19;100.00
21086;BME280;72320;50.082;20.000;2023-10-08T03:15:53;98861.28;;;10.13;100.00
21086;BME280;72320;50.082;20.000;2023-10-08T03:17:28;98863.75;;;10.04;100.00
21086;BME280;72320;50.082;20.000;2023-10-08T03:19:01;98857.38;;;10.06;100.00
21086;BME280;72320;50.082;20.000;2023-10-08T03:20:37;98845.16;;;10.16;100.00
21086;BME280;72320;50.082;20.000;2023-10-08T03:22:11;98837.72;;;10.21;100.00
21086;BME280;72320;50.082;20.000;2023-10-08T03:23:45;98852.47;;;10.26;100.00
21086;BME280;72320;50.082;20.000;2023-10-08T03:25:18;98840.56;;;10.31;100.00
21086;BME280;72320;50.082;20.000;2023-10-08T03:26:52;98843.09;;;10.33;100.00
21086;BME280;72320;50.082;20.000;2023-10-08T03:28:25;98858.88;;;10.34;100.00
21086;BME280;72320;50.082;20.000;2023-10-08T03:29:59;98859.97;;;10.32;100.00
21086;BME280;72320;50.082;20.000;2023-10-08T03:31:31;98871.09;;;10.37;100.00
21086;BME280;72320;50.082;20.000;2023-10-08T03:33:04;98879.53;;;10.42;100.00
21086;BME280;72320;50.082;20.000;2023-10-08T03:34:37;98876.59;;;10.34;100.00
21086;BME280;72320;50.082;20.000;2023-10-08T03:36:13;98871.53;;;10.31;100.00
21086;BME280;72320;50.082;20.000;2023-10-08T03:37:46;98872.13;;;10.10;100.00
21086;BME280;72320;50.082;20.000;2023-10-08T03:39:19;98878.16;;;10.12;100.00
21086;BME280;72320;50.082;20.000;2023-10-08T03:40:52;98871.16;;;10.24;100.00
21086;BME280;72320;50.082;20.000;2023-10-08T03:42:26;98875.38;;;10.27;100.00
21086;BME280;72320;50.082;20.000;2023-10-08T03:43:59;98882.34;;;10.28;100.00
21086;BME280;72320;50.082;20.000;2023-10-08T03:45:32;98897.09;;;10.32;100.00
21086;BME280;72320;50.082;20.000;2023-10-08T03:47:05;98903.91;;;10.36;100.00
21086;BME280;72320;50.082;20.000;2023-10-08T03:48:42;98911.84;;;10.36;100.00
21086;BME280;72320;50.082;20.000;2023-10-08T03:50:14;98914.53;;;10.47;100.00
21086;BME280;72320;50.082;20.000;2023-10-08T03:51:49;98911.91;;;10.47;100.00
21086;BME280;72320;50.082;20.000;2023-10-08T03:53:23;98928.78;;;10.46;100.00
21086;BME280;72320;50.082;20.000;2023-10-08T03:54:56;98933.84;;;10.49;100.00
21086;BME280;72320;50.082;20.000;2023-10-08T03:56:29;98934.94;;;10.46;100.00
21086;BME280;72320;50.082;20.000;2023-10-08T03:58:03;98942.44;;;10.29;100.00
21086;BME280;72320;50.082;20.000;2023-10-08T03:59:36;98943.38;;;10.28;100.00
21086;BME280;72320;50.082;20.000;2023-10-08T04:01:09;98953.50;;;10.23;100.00
21086;BME280;72320;50.082;20.000;2023-10-08T04:02:46;98948.78;;;10.13;100.00
21086;BME280;72320;50.082;20.000;2023-10-08T04:04:20;98946.78;;;10.17;100.00
21086;BME280;72320;50.082;20.000;2023-10-08T04:05:53;98947.34;;;10.09;100.00
21086;BME280;72320;50.082;20.000;2023-10-08T04:07:27;98958.66;;;10.11;100.00
21086;BME280;72320;50.082;20.000;2023-10-08T04:09:00;98962.72;;;10.04;100.00
21086;BME280;72320;50.082;20.000;2023-10-08T04:10:35;98967.06;;;10.05;100.00
21086;BME280;72320;50.082;20.000;2023-10-08T04:12:08;98958.66;;;10.11;100.00
21086;BME280;72320;50.082;20.000;2023-10-08T04:13:41;98969.28;;;10.11;100.00
21086;BME280;72320;50.082;20.000;2023-10-08T04:15:14;98963.78;;;10.14;100.00
21086;BME280;72320;50.082;20.000;2023-10-08T04:16:48;98968.97;;;10.03;100.00
21086;BME280;72320;50.082;20.000;2023-10-08T04:18:21;98978.50;;;10.06;100.00
21086;BME280;72320;50.082;20.000;2023-10-08T04:19:54;98967.28;;;10.02;100.00
21086;BME280;72320;50.082;20.000;2023-10-08T04:21:27;98977.25;;;9.99;100.00
21086;BME280;72320;50.082;20.000;2023-10-08T04:23:02;98979.47;;;9.92;100.00
21086;BME280;72320;50.082;20.000;2023-10-08T04:24:36;98987.78;;;9.87;100.00
21086;BME280;72320;50.082;20.000;2023-10-08T04:26:09;98980.44;;;10.04;100.00
21086;BME280;72320;50.082;20.000;2023-10-08T04:27:42;98979.72;;;9.89;100.00
21086;BME280;72320;50.082;20.000;2023-10-08T04:29:15;98995.00;;;9.73;100.00
21086;BME280;72320;50.082;20.000;2023-10-08T04:30:48;99007.06;;;9.77;100.00
21086;BME280;72320;50.082;20.000;2023-10-08T04:32:21;99012.16;;;9.67;100.00
21086;BME280;72320;50.082;20.000;2023-10-08T04:33:55;99005.59;;;9.73;100.00
21086;BME280;72320;50.082;20.000;2023-10-08T04:35:28;99005.06;;;9.80;100.00
21086;BME280;72320;50.082;20.000;2023-10-08T04:37:01;99008.66;;;9.79;100.00
21086;BME280;72320;50.082;20.000;2023-10-08T04:38:34;99007.19;;;9.75;100.00
21086;BME280;72320;50.082;20.000;2023-10-08T04:40:08;99010.34;;;9.67;100.00
21086;BME280;72320;50.082;20.000;2023-10-08T04:41:41;99015.53;;;9.69;100.00
21086;BME280;72320;50.082;20.000;2023-10-08T04:43:23;99020.41;;;9.62;100.00
21086;BME280;72320;50.082;20.000;2023-10-08T04:44:56;99022.13;;;9.51;100.00
21086;BME280;72320;50.082;20.000;2023-10-08T04:46:29;99022.31;;;9.35;100.00
21086;BME280;72320;50.082;20.000;2023-10-08T04:48:04;99024.97;;;9.60;100.00
21086;BME280;72320;50.082;20.000;2023-10-08T04:49:37;99028.16;;;9.65;100.00
21086;BME280;72320;50.082;20.000;2023-10-08T04:51:10;99023.72;;;9.66;100.00
21086;BME280;72320;50.082;20.000;2023-10-08T04:52:43;99023.91;;;9.63;100.00
21086;BME280;72320;50.082;20.000;2023-10-08T04:54:16;99042.97;;;9.55;100.00
21086;BME280;72320;50.082;20.000;2023-10-08T04:55:49;99029.03;;;9.66;100.00
21086;BME280;72320;50.082;20.000;2023-10-08T04:57:22;99035.38;;;9.63;100.00
21086;BME280;72320;50.082;20.000;2023-10-08T04:58:55;99047.34;;;9.69;100.00
21086;BME280;72320;50.082;20.000;2023-10-08T05:00:28;99045.13;;;9.76;100.00
21086;BME280;72320;50.082;20.000;2023-10-08T05:02:04;99047.66;;;9.77;100.00
21086;BME280;72320;50.082;20.000;2023-10-08T05:03:37;99057.22;;;9.80;100.00
21086;BME280;72320;50.082;20.000;2023-10-08T05:05:11;99062.19;;;9.84;100.00
21086;BME280;72320;50.082;20.000;2023-10-08T05:06:44;99065.38;;;9.89;100.00
21086;BME280;72320;50.082;20.000;2023-10-08T05:08:17;99058.81;;;9.95;100.00
21086;BME280;72320;50.082;20.000;2023-10-08T05:09:50;99072.41;;;10.03;100.00
21086;BME280;72320;50.082;20.000;2023-10-08T05:11:23;99064.88;;;10.10;100.00
21086;BME280;72320;50.082;20.000;2023-10-08T05:12:57;99081.50;;;10.12;100.00
21086;BME280;72320;50.082;20.000;2023-10-08T05:14:30;99082.25;;;10.14;100.00
21086;BME280;72320;50.082;20.000;2023-10-08T05:16:03;99095.94;;;10.20;100.00
21086;BME280;72320;50.082;20.000;2023-10-08T05:17:36;99097.75;;;10.07;100.00
21086;BME280;72320;50.082;20.000;2023-10-08T05:19:09;99114.41;;;10.22;100.00
21086;BME280;72320;50.082;20.000;2023-10-08T05:20:43;99112.94;;;10.31;100.00
21086;BME280;72320;50.082;20.000;2023-10-08T05:22:17;99116.88;;;10.25;100.00
21086;BME280;72320;50.082;20.000;2023-10-08T05:23:51;99124.84;;;10.38;100.00
21086;BME280;72320;50.082;20.000;2023-10-08T05:25:24;99123.63;;;10.42;100.00
21086;BME280;72320;50.082;20.000;2023-10-08T05:26:57;99126.59;;;10.50;100.00
21086;BME280;72320;50.082;20.000;2023-10-08T05:28:30;99130.13;;;10.51;100.00
21086;BME280;72320;50.082;20.000;2023-10-08T05:30:04;99128.81;;;10.56;100.00
21086;BME280;72320;50.082;20.000;2023-10-08T05:31:37;99136.47;;;10.61;100.00
21086;BME280;72320;50.082;20.000;2023-10-08T05:33:10;99138.47;;;10.57;100.00
21086;BME280;72320;50.082;20.000;2023-10-08T05:34:43;99124.72;;;10.52;100.00
21086;BME280;72320;50.082;20.000;2023-10-08T05:36:16;99119.72;;;10.60;100.00
21086;BME280;72320;50.082;20.000;2023-10-08T05:37:49;99123.31;;;10.59;100.00
21086;BME280;72320;50.082;20.000;2023-10-08T05:39:22;99128.28;;;10.64;100.00
21086;BME280;72320;50.082;20.000;2023-10-08T05:40:56;99121.41;;;10.61;100.00
21086;BME280;72320;50.082;20.000;2023-10-08T05:42:30;99110.22;;;10.69;100.00
21086;BME280;72320;50.082;20.000;2023-10-08T05:44:03;99108.84;;;10.63;100.00
21086;BME280;72320;50.082;20.000;2023-10-08T05:45:36;99132.53;;;10.66;100.00
21086;BME280;72320;50.082;20.000;2023-10-08T05:47:09;99163.44;;;10.67;100.00
21086;BME280;72320;50.082;20.000;2023-10-08T05:48:42;99173.50;;;10.75;100.00
21086;BME280;72320;50.082;20.000;2023-10-08T05:50:15;99175.53;;;10.71;100.00
21086;BME280;72320;50.082;20.000;2023-10-08T05:51:48;99173.63;;;10.73;100.00
21086;BME280;72320;50.082;20.000;2023-10-08T05:53:23;99167.34;;;10.74;100.00
21086;BME280;72320;50.082;20.000;2023-10-08T05:54:56;99160.13;;;10.76;100.00
21086;BME280;72320;50.082;20.000;2023-10-08T05:56:29;99157.59;;;10.62;100.00
21086;BME280;72320;50.082;20.000;2023-10-08T05:58:06;99162.06;;;10.62;100.00
21086;BME280;72320;50.082;20.000;2023-10-08T05:59:47;99182.13;;;10.66;100.00
21086;BME280;72320;50.082;20.000;2023-10-08T06:01:21;99195.47;;;10.64;100.00
21086;BME280;72320;50.082;20.000;2023-10-08T06:02:54;99188.91;;;10.70;100.00
21086;BME280;72320;50.082;20.000;2023-10-08T06:04:27;99195.47;;;10.77;100.00
21086;BME280;72320;50.082;20.000;2023-10-08T06:06:06;99199.63;;;10.81;100.00
21086;BME280;72320;50.082;20.000;2023-10-08T06:07:47;99206.41;;;10.85;100.00
21086;BME280;72320;50.082;20.000;2023-10-08T06:09:21;99219.50;;;10.75;100.00
21086;BME280;72320;50.082;20.000;2023-10-08T06:10:54;99226.59;;;10.88;100.00
21086;BME280;72320;50.082;20.000;2023-10-08T06:12:28;99235.41;;;10.75;100.00
21086;BME280;72320;50.082;20.000;2023-10-08T06:14:01;99232.75;;;10.75;100.00
21086;BME280;72320;50.082;20.000;2023-10-08T06:15:36;99220.88;;;10.94;100.00
21086;BME280;72320;50.082;20.000;2023-10-08T06:17:09;99212.66;;;10.97;100.00
21086;BME280;72320;50.082;20.000;2023-10-08T06:18:42;99225.84;;;10.98;100.00
21086;BME280;72320;50.082;20.000;2023-10-08T06:20:15;99226.78;;;11.10;100.00
21086;BME280;72320;50.082;20.000;2023-10-08T06:21:48;99237.59;;;11.07;100.00
21086;BME280;72320;50.082;20.000;2023-10-08T06:23:22;99233.91;;;11.10;100.00
21086;BME280;72320;50.082;20.000;2023-10-08T06:24:55;99232.22;;;11.09;100.00
21086;BME280;72320;50.082;20.000;2023-10-08T06:26:28;99237.09;;;11.02;100.00
21086;BME280;72320;50.082;20.000;2023-10-08T06:28:01;99235.63;;;10.98;100.00
21086;BME280;72320;50.082;20.000;2023-10-08T06:29:34;99247.06;;;11.11;100.00
21086;BME280;72320;50.082;20.000;2023-10-08T06:31:08;99254.84;;;11.01;100.00
21086;BME280;72320;50.082;20.000;2023-10-08T06:32:41;99271.09;;;11.10;100.00
21086;BME280;72320;50.082;20.000;2023-10-08T06:34:14;99282.34;;;11.13;100.00
21086;BME280;72320;50.082;20.000;2023-10-08T06:35:48;99275.44;;;11.23;100.00
21086;BME280;72320;50.082;20.000;2023-10-08T06:37:21;99271.59;;;11.27;100.00
21086;BME280;72320;50.082;20.000;2023-10-08T06:38:54;99271.81;;;11.24;100.00
21086;BME280;72320;50.082;20.000;2023-10-08T06:40:27;99286.91;;;11.11;100.00
21086;BME280;72320;50.082;20.000;2023-10-08T06:42:00;99284.34;;;11.22;100.00
21086;BME280;72320;50.082;20.000;2023-10-08T06:43:34;99283.06;;;11.15;100.00
21086;BME280;72320;50.082;20.000;2023-10-08T06:45:07;99285.41;;;11.20;100.00
21086;BME280;72320;50.082;20.000;2023-10-08T06:46:41;99292.09;;;11.25;100.00
21086;BME280;72320;50.082;20.000;2023-10-08T06:48:14;99299.00;;;11.15;100.00
21086;BME280;72320;50.082;20.000;2023-10-08T06:49:48;99293.50;;;11.18;100.00
21086;BME280;72320;50.082;20.000;2023-10-08T06:51:20;99290.72;;;11.32;100.00
21086;BME280;72320;50.082;20.000;2023-10-08T06:52:53;99297.50;;;11.37;100.00
21086;BME280;72320;50.082;20.000;2023-10-08T06:54:26;99299.09;;;11.39;100.00
21086;BME280;72320;50.082;20.000;2023-10-08T06:56:00;99306.00;;;11.42;100.00
21086;BME280;72320;50.082;20.000;2023-10-08T06:57:33;99300.06;;;11.38;100.00
21086;BME280;72320;50.082;20.000;2023-10-08T06:59:06;99303.28;;;11.30;100.00
21086;BME280;72320;50.082;20.000;2023-10-08T07:00:39;99305.28;;;11.27;100.00
21086;BME280;72320;50.082;20.000;2023-10-08T07:02:12;99298.81;;;11.31;100.00
21086;BME280;72320;50.082;20.000;2023-10-08T07:03:45;99285.59;;;11.29;100.00
21086;BME280;72320;50.082;20.000;2023-10-08T07:05:19;99281.34;;;11.27;100.00
21086;BME280;72320;50.082;20.000;2023-10-08T07:06:52;99302.84;;;11.24;100.00
21086;BME280;72320;50.082;20.000;2023-10-08T07:08:30;99313.97;;;11.29;100.00
21086;BME280;72320;50.082;20.000;2023-10-08T07:10:05;99324.19;;;11.35;100.00
21086;BME280;72320;50.082;20.000;2023-10-08T07:11:39;99324.28;;;11.33;100.00
21086;BME280;72320;50.082;20.000;2023-10-08T07:13:12;99336.63;;;11.35;100.00
21086;BME280;72320;50.082;20.000;2023-10-08T07:14:45;99336.00;;;11.31;100.00
21086;BME280;72320;50.082;20.000;2023-10-08T07:16:21;99343.63;;;11.36;100.00
21086;BME280;72320;50.082;20.000;2023-10-08T07:17:54;99335.22;;;11.42;100.00
21086;BME280;72320;50.082;20.000;2023-10-08T07:19:30;99347.09;;;11.62;100.00
21086;BME280;72320;50.082;20.000;2023-10-08T07:21:03;99334.34;;;11.67;100.00
21086;BME280;72320;50.082;20.000;2023-10-08T07:22:36;99331.22;;;11.85;100.00
21086;BME280;72320;50.082;20.000;2023-10-08T07:24:14;99332.53;;;12.04;100.00
21086;BME280;72320;50.082;20.000;2023-10-08T07:25:53;99336.63;;;12.21;100.00
21086;BME280;72320;50.082;20.000;2023-10-08T07:27:26;99331.34;;;12.32;100.00
21086;BME280;72320;50.082;20.000;2023-10-08T07:28:59;99336.25;;;12.49;100.00
21086;BME280;72320;50.082;20.000;2023-10-08T07:30:38;99322.59;;;12.54;100.00
21086;BME280;72320;50.082;20.000;2023-10-08T07:32:11;99332.31;;;12.66;100.00
21086;BME280;72320;50.082;20.000;2023-10-08T07:33:50;99343.59;;;12.81;100.00
21086;BME280;72320;50.082;20.000;2023-10-08T07:35:23;99342.53;;;12.94;100.00
21086;BME280;72320;50.082;20.000;2023-10-08T07:36:57;99351.16;;;12.98;100.00
21086;BME280;72320;50.082;20.000;2023-10-08T07:38:30;99349.72;;;13.05;100.00
21086;BME280;72320;50.082;20.000;2023-10-08T07:40:03;99352.50;;;13.15;100.00
21086;BME280;72320;50.082;20.000;2023-10-08T07:41:36;99356.19;;;13.25;100.00
21086;BME280;72320;50.082;20.000;2023-10-08T07:43:09;99357.41;;;13.32;100.00
21086;BME280;72320;50.082;20.000;2023-10-08T07:44:42;99359.97;;;13.34;100.00
21086;BME280;72320;50.082;20.000;2023-10-08T07:46:15;99358.63;;;13.28;100.00
21086;BME280;72320;50.082;20.000;2023-10-08T07:47:48;99362.50;;;13.35;100.00
21086;BME280;72320;50.082;20.000;2023-10-08T07:49:23;99380.69;;;13.52;100.00
21086;BME280;72320;50.082;20.000;2023-10-08T07:50:56;99371.84;;;13.63;100.00
21086;BME280;72320;50.082;20.000;2023-10-08T07:52:30;99361.03;;;13.76;100.00
21086;BME280;72320;50.082;20.000;2023-10-08T07:54:03;99360.66;;;13.92;100.00
21086;BME280;72320;50.082;20.000;2023-10-08T07:55:36;99360.41;;;13.95;100.00
21086;BME280;72320;50.082;20.000;2023-10-08T07:57:09;99364.03;;;13.94;100.00
21086;BME280;72320;50.082;20.000;2023-10-08T07:58:46;99373.97;;;14.03;100.00
21086;BME280;72320;50.082;20.000;2023-10-08T08:00:19;99369.34;;;14.16;100.00
21086;BME280;72320;50.082;20.000;2023-10-08T08:01:52;99365.81;;;14.16;100.00
21086;BME280;72320;50.082;20.000;2023-10-08T08:03:25;99368.63;;;14.03;100.00
21086;BME280;72320;50.082;20.000;2023-10-08T08:04:58;99369.38;;;13.94;100.00
21086;BME280;72320;50.082;20.000;2023-10-08T08:06:31;99369.03;;;13.76;100.00